Minerva Grace — SVBN7 — position and weather

sailwx.info

Track history (hours):
 
Tides and Currents Weather Stations Pressure Air Temp Water Temp Dewpoint Dewpoint Depression Visibility Wind Speed Wind Dir Waves Ship Positions

Minerva Grace

Last reported at 2014-Jul-27 01:18 UTC. Time now 2014-Jul-31 03:30 UTC.
Position N 40°34' E 027°09'.

Length 183 m; draft 8.4 m.

Type: Tanker. MMSI: 241193000.

Date/timePositionNaut miles runAvg speedWind from/ knotsBaromVisibWave heightAir tempDewpointWater temp
2014-Jul-27 01:18N 40°34' E 027°09'1011.9
2014-Jul-27 00:27N 40°29' E 026°57'1111.7
2014-Jul-26 23:30N 40°25' E 026°44'2110.7
2014-Jul-26 21:30N 40°10' E 026°23'30 9.6
2014-Jul-26 18:20N 39°51' E 025°53'10 8.4
2014-Jul-26 17:10N 39°41' E 025°54'1 0.8
2014-Jul-26 16:19N 39°42' E 025°53'135 7.2
2014-Jul-25 21:33N 37°43' E 024°32'10 9.9
2014-Jul-25 20:33N 37°34' E 024°27'22 9.6
2014-Jul-25 18:17N 37°16' E 024°10'10 9.6
2014-Jul-25 17:14N 37°07' E 024°07'7 9.8
2014-Jul-25 16:32N 36°60' E 024°05'1010.1
2014-Jul-25 15:33N 36°50' E 024°02'22 9.4
2014-Jul-25 13:14N 36°34' E 023°43'  
2014-Jul-22 05:07N 36°12' E 014°55'713.4
2014-Jul-22 04:34N 36°14' E 014°46'1313.5
2014-Jul-22 03:33N 36°19' E 014°31'1313.1
2014-Jul-22 02:33N 36°24' E 014°16'1313.1
2014-Jul-22 01:33N 36°29' E 014°00'1313.2
2014-Jul-22 00:33N 36°34' E 013°45'1313.0
2014-Jul-21 23:33N 36°38' E 013°30'1313.0
2014-Jul-21 22:33N 36°43' E 013°15'1313.4
2014-Jul-21 21:33N 36°48' E 012°59'1514.0
2014-Jul-21 20:31N 36°53' E 012°42'313.7
2014-Jul-21 20:18N 36°54' E 012°39'36712.2
2014-Jul-20 14:13N 37°20' E 004°60'2111.7
2014-Jul-20 12:23N 37°19' E 004°33'1011.8
2014-Jul-20 11:33N 37°19' E 004°21'1212.1
2014-Jul-20 10:33N 37°18' E 004°06'2411.8
2014-Jul-20 08:31N 37°14' E 003°36'1212.2
2014-Jul-20 07:33N 37°12' E 003°21'5112.4
2014-Jul-20 03:28N 37°03' E 002°19'1111.9
2014-Jul-20 02:32N 37°01' E 002°05'1211.9
2014-Jul-20 01:33N 36°59' E 001°51'1212.2
2014-Jul-20 00:33N 36°56' E 001°36'1212.2
2014-Jul-19 23:33N 36°54' E 001°21'1614.8
2014-Jul-19 22:30N 36°50' E 001°02'2612.3
2014-Jul-19 20:24N 36°46' E 000°30'1213.3
2014-Jul-19 19:30N 36°44' E 000°15'3112.8
2014-Jul-19 17:06N 36°38' W 000°22'1312.6
2014-Jul-19 16:05N 36°36' W 000°38'1212.7
2014-Jul-19 15:09N 36°34' W 000°53'812.7
2014-Jul-19 14:33N 36°33' W 001°02'1212.3
2014-Jul-19 13:33N 36°30' W 001°17'1312.5
2014-Jul-19 12:33N 36°28' W 001°32'1313.4
2014-Jul-19 11:33N 36°25' W 001°48'1612.9
2014-Jul-19 10:19N 36°22' W 002°08'1212.5
2014-Jul-19 09:23N 36°20' W 002°22'1112.3
2014-Jul-19 08:29N 36°18' W 002°36'2812.3
2014-Jul-19 06:09N 36°13' W 003°11'17213.3
2014-Jul-18 17:16N 35°35' W 006°37'2311.8
2014-Jul-18 15:21N 35°20' W 006°58'911.9
2014-Jul-18 14:33N 35°13' W 007°06'  
Track history (hours):
 
Tides and Currents Weather Stations Pressure Air Temp Water Temp Dewpoint Dewpoint Depression Visibility Wind Speed Wind Dir Waves Ship Positions

Minerva Grace

Last reported at 2014-Jul-27 01:18 UTC. Time now 2014-Jul-31 03:30 UTC.
Position N 40°34' E 027°09'.

Length 183 m; draft 8.4 m.

Type: Tanker. MMSI: 241193000.

Date/timePositionNaut miles runAvg speedWind from/ knotsBaromVisibWave heightAir tempDewpointWater temp
2014-Jul-27 01:18N 40°34' E 027°09'1011.9
2014-Jul-27 00:27N 40°29' E 026°57'1111.7
2014-Jul-26 23:30N 40°25' E 026°44'2110.7
2014-Jul-26 21:30N 40°10' E 026°23'30 9.6
2014-Jul-26 18:20N 39°51' E 025°53'10 8.4
2014-Jul-26 17:10N 39°41' E 025°54'1 0.8
2014-Jul-26 16:19N 39°42' E 025°53'135 7.2
2014-Jul-25 21:33N 37°43' E 024°32'10 9.9
2014-Jul-25 20:33N 37°34' E 024°27'22 9.6
2014-Jul-25 18:17N 37°16' E 024°10'10 9.6
2014-Jul-25 17:14N 37°07' E 024°07'7 9.8
2014-Jul-25 16:32N 36°60' E 024°05'1010.1
2014-Jul-25 15:33N 36°50' E 024°02'22 9.4
2014-Jul-25 13:14N 36°34' E 023°43'  
2014-Jul-22 05:07N 36°12' E 014°55'713.4
2014-Jul-22 04:34N 36°14' E 014°46'1313.5
2014-Jul-22 03:33N 36°19' E 014°31'1313.1
2014-Jul-22 02:33N 36°24' E 014°16'1313.1
2014-Jul-22 01:33N 36°29' E 014°00'1313.2
2014-Jul-22 00:33N 36°34' E 013°45'1313.0
2014-Jul-21 23:33N 36°38' E 013°30'1313.0
2014-Jul-21 22:33N 36°43' E 013°15'1313.4
2014-Jul-21 21:33N 36°48' E 012°59'1514.0
2014-Jul-21 20:31N 36°53' E 012°42'313.7
2014-Jul-21 20:18N 36°54' E 012°39'36712.2
2014-Jul-20 14:13N 37°20' E 004°60'2111.7
2014-Jul-20 12:23N 37°19' E 004°33'1011.8
2014-Jul-20 11:33N 37°19' E 004°21'1212.1
2014-Jul-20 10:33N 37°18' E 004°06'2411.8
2014-Jul-20 08:31N 37°14' E 003°36'1212.2
2014-Jul-20 07:33N 37°12' E 003°21'5112.4
2014-Jul-20 03:28N 37°03' E 002°19'1111.9
2014-Jul-20 02:32N 37°01' E 002°05'1211.9
2014-Jul-20 01:33N 36°59' E 001°51'1212.2
2014-Jul-20 00:33N 36°56' E 001°36'1212.2
2014-Jul-19 23:33N 36°54' E 001°21'1614.8
2014-Jul-19 22:30N 36°50' E 001°02'2612.3
2014-Jul-19 20:24N 36°46' E 000°30'1213.3
2014-Jul-19 19:30N 36°44' E 000°15'3112.8
2014-Jul-19 17:06N 36°38' W 000°22'1312.6
2014-Jul-19 16:05N 36°36' W 000°38'1212.7
2014-Jul-19 15:09N 36°34' W 000°53'812.7
2014-Jul-19 14:33N 36°33' W 001°02'1212.3
2014-Jul-19 13:33N 36°30' W 001°17'1312.5
2014-Jul-19 12:33N 36°28' W 001°32'1313.4
2014-Jul-19 11:33N 36°25' W 001°48'1612.9
2014-Jul-19 10:19N 36°22' W 002°08'1212.5
2014-Jul-19 09:23N 36°20' W 002°22'1112.3
2014-Jul-19 08:29N 36°18' W 002°36'2812.3
2014-Jul-19 06:09N 36°13' W 003°11'17213.3
2014-Jul-18 17:16N 35°35' W 006°37'2311.8
2014-Jul-18 15:21N 35°20' W 006°58'911.9
2014-Jul-18 14:33N 35°13' W 007°06'  

Dump ship's entire track history